sensor_id;sensor_type;location;lat;lon;timestamp;temperature;humidity
7998;DHT22;4044;49.814;7.828;2023-08-30T00:00:11;16.80;97.20
7998;DHT22;4044;49.814;7.828;2023-08-30T00:02:37;16.80;97.20
7998;DHT22;4044;49.814;7.828;2023-08-30T00:05:03;16.80;97.10
7998;DHT22;4044;49.814;7.828;2023-08-30T00:07:29;16.70;97.00
7998;DHT22;4044;49.814;7.828;2023-08-30T00:09:55;16.70;97.20
7998;DHT22;4044;49.814;7.828;2023-08-30T00:12:21;16.70;96.90
7998;DHT22;4044;49.814;7.828;2023-08-30T00:14:47;16.80;96.90
7998;DHT22;4044;49.814;7.828;2023-08-30T00:17:12;16.80;96.50
7998;DHT22;4044;49.814;7.828;2023-08-30T00:19:38;16.70;96.50
7998;DHT22;4044;49.814;7.828;2023-08-30T00:22:04;16.80;96.60
7998;DHT22;4044;49.814;7.828;2023-08-30T00:24:33;16.80;96.50
7998;DHT22;4044;49.814;7.828;2023-08-30T00:26:58;16.80;96.50
7998;DHT22;4044;49.814;7.828;2023-08-30T00:29:24;16.80;96.70
7998;DHT22;4044;49.814;7.828;2023-08-30T00:31:49;16.70;97.20
7998;DHT22;4044;49.814;7.828;2023-08-30T00:34:15;16.60;97.40
7998;DHT22;4044;49.814;7.828;2023-08-30T00:36:40;16.70;97.10
7998;DHT22;4044;49.814;7.828;2023-08-30T00:39:06;16.60;97.30
7998;DHT22;4044;49.814;7.828;2023-08-30T00:41:32;16.60;97.00
7998;DHT22;4044;49.814;7.828;2023-08-30T00:43:58;16.60;97.20
7998;DHT22;4044;49.814;7.828;2023-08-30T00:46:24;16.60;97.30
7998;DHT22;4044;49.814;7.828;2023-08-30T00:48:49;16.60;97.20
7998;DHT22;4044;49.814;7.828;2023-08-30T00:51:15;16.70;97.20
7998;DHT22;4044;49.814;7.828;2023-08-30T00:53:41;16.70;97.30
7998;DHT22;4044;49.814;7.828;2023-08-30T00:56:06;16.60;97.20
7998;DHT22;4044;49.814;7.828;2023-08-30T00:58:32;16.60;97.10
7998;DHT22;4044;49.814;7.828;2023-08-30T01:00:58;16.60;96.80
7998;DHT22;4044;49.814;7.828;2023-08-30T01:03:24;16.60;97.20
7998;DHT22;4044;49.814;7.828;2023-08-30T01:05:49;16.50;97.70
7998;DHT22;4044;49.814;7.828;2023-08-30T01:08:15;16.50;97.70
7998;DHT22;4044;49.814;7.828;2023-08-30T01:11:03;16.50;97.50
7998;DHT22;4044;49.814;7.828;2023-08-30T01:13:33;16.40;97.90
7998;DHT22;4044;49.814;7.828;2023-08-30T01:16:00;16.40;97.50
7998;DHT22;4044;49.814;7.828;2023-08-30T01:18:27;16.40;97.50
7998;DHT22;4044;49.814;7.828;2023-08-30T01:20:55;16.40;97.40
7998;DHT22;4044;49.814;7.828;2023-08-30T01:23:53;16.40;97.40
7998;DHT22;4044;49.814;7.828;2023-08-30T01:26:45;16.40;97.40
7998;DHT22;4044;49.814;7.828;2023-08-30T01:29:16;16.40;97.80
7998;DHT22;4044;49.814;7.828;2023-08-30T01:31:44;16.30;98.20
7998;DHT22;4044;49.814;7.828;2023-08-30T01:34:10;16.20;98.10
7998;DHT22;4044;49.814;7.828;2023-08-30T01:36:39;16.20;98.20
7998;DHT22;4044;49.814;7.828;2023-08-30T01:39:04;16.20;98.00
7998;DHT22;4044;49.814;7.828;2023-08-30T01:41:31;16.10;97.90
7998;DHT22;4044;49.814;7.828;2023-08-30T01:43:58;16.10;97.90
7998;DHT22;4044;49.814;7.828;2023-08-30T01:46:24;16.10;97.70
7998;DHT22;4044;49.814;7.828;2023-08-30T01:48:51;16.10;98.00
7998;DHT22;4044;49.814;7.828;2023-08-30T01:51:17;15.90;99.00
7998;DHT22;4044;49.814;7.828;2023-08-30T01:53:44;15.80;98.90
7998;DHT22;4044;49.814;7.828;2023-08-30T01:56:10;15.80;98.70
7998;DHT22;4044;49.814;7.828;2023-08-30T01:58:36;15.80;98.50
7998;DHT22;4044;49.814;7.828;2023-08-30T02:01:01;15.70;98.60
7998;DHT22;4044;49.814;7.828;2023-08-30T02:03:27;15.70;98.50
7998;DHT22;4044;49.814;7.828;2023-08-30T02:06:11;15.70;98.60
7998;DHT22;4044;49.814;7.828;2023-08-30T02:08:41;15.70;98.50
7998;DHT22;4044;49.814;7.828;2023-08-30T02:11:23;15.60;98.50
7998;DHT22;4044;49.814;7.828;2023-08-30T02:13:53;15.60;98.60
7998;DHT22;4044;49.814;7.828;2023-08-30T02:16:20;15.50;99.00
7998;DHT22;4044;49.814;7.828;2023-08-30T02:18:47;15.30;99.10
7998;DHT22;4044;49.814;7.828;2023-08-30T02:21:14;15.30;99.00
7998;DHT22;4044;49.814;7.828;2023-08-30T02:23:39;15.20;99.10
7998;DHT22;4044;49.814;7.828;2023-08-30T02:26:05;15.10;99.10
7998;DHT22;4044;49.814;7.828;2023-08-30T02:28:30;14.90;99.70
7998;DHT22;4044;49.814;7.828;2023-08-30T02:30:56;14.80;99.70
7998;DHT22;4044;49.814;7.828;2023-08-30T02:33:22;14.70;99.60
7998;DHT22;4044;49.814;7.828;2023-08-30T02:35:47;14.70;99.40
7998;DHT22;4044;49.814;7.828;2023-08-30T02:38:13;14.60;99.50
7998;DHT22;4044;49.814;7.828;2023-08-30T02:40:38;14.60;99.70
7998;DHT22;4044;49.814;7.828;2023-08-30T02:43:04;14.50;99.60
7998;DHT22;4044;49.814;7.828;2023-08-30T02:45:29;14.50;99.60
7998;DHT22;4044;49.814;7.828;2023-08-30T02:47:55;14.50;99.90
7998;DHT22;4044;49.814;7.828;2023-08-30T02:50:22;14.50;99.50
7998;DHT22;4044;49.814;7.828;2023-08-30T02:52:48;14.50;99.40
7998;DHT22;4044;49.814;7.828;2023-08-30T02:55:13;14.40;99.20
7998;DHT22;4044;49.814;7.828;2023-08-30T02:57:39;14.40;99.50
7998;DHT22;4044;49.814;7.828;2023-08-30T03:00:05;14.30;99.90
7998;DHT22;4044;49.814;7.828;2023-08-30T03:02:32;14.10;99.90
7998;DHT22;4044;49.814;7.828;2023-08-30T03:04:58;14.10;99.90
7998;DHT22;4044;49.814;7.828;2023-08-30T03:07:25;14.00;99.90
7998;DHT22;4044;49.814;7.828;2023-08-30T03:09:53;14.00;99.90
7998;DHT22;4044;49.814;7.828;2023-08-30T03:12:19;13.90;99.90
7998;DHT22;4044;49.814;7.828;2023-08-30T03:14:44;13.90;99.80
7998;DHT22;4044;49.814;7.828;2023-08-30T03:17:10;13.90;99.80
7998;DHT22;4044;49.814;7.828;2023-08-30T03:19:35;13.70;99.80
7998;DHT22;4044;49.814;7.828;2023-08-30T03:22:01;13.60;99.90
7998;DHT22;4044;49.814;7.828;2023-08-30T03:24:26;13.50;99.90
7998;DHT22;4044;49.814;7.828;2023-08-30T03:26:52;13.40;99.90
7998;DHT22;4044;49.814;7.828;2023-08-30T03:29:17;13.40;99.90
7998;DHT22;4044;49.814;7.828;2023-08-30T03:31:43;13.30;99.90
7998;DHT22;4044;49.814;7.828;2023-08-30T03:34:09;13.30;99.90
7998;DHT22;4044;49.814;7.828;2023-08-30T03:36:34;13.30;99.90
7998;DHT22;4044;49.814;7.828;2023-08-30T03:39:00;13.30;99.90
7998;DHT22;4044;49.814;7.828;2023-08-30T03:41:25;13.20;99.90
7998;DHT22;4044;49.814;7.828;2023-08-30T03:43:51;13.20;99.90
7998;DHT22;4044;49.814;7.828;2023-08-30T03:46:16;13.20;99.90
7998;DHT22;4044;49.814;7.828;2023-08-30T03:48:42;13.20;99.90
7998;DHT22;4044;49.814;7.828;2023-08-30T03:51:07;13.20;99.90
7998;DHT22;4044;49.814;7.828;2023-08-30T03:53:33;13.10;99.90
7998;DHT22;4044;49.814;7.828;2023-08-30T03:55:59;13.00;99.90
7998;DHT22;4044;49.814;7.828;2023-08-30T03:58:25;12.90;99.90
7998;DHT22;4044;49.814;7.828;2023-08-30T04:00:50;12.90;99.90
7998;DHT22;4044;49.814;7.828;2023-08-30T04:03:16;12.90;99.90
7998;DHT22;4044;49.814;7.828;2023-08-30T04:05:42;12.80;99.90
7998;DHT22;4044;49.814;7.828;2023-08-30T04:08:08;12.80;99.90
7998;DHT22;4044;49.814;7.828;2023-08-30T04:10:35;12.80;99.90
7998;DHT22;4044;49.814;7.828;2023-08-30T04:13:01;12.80;99.90
7998;DHT22;4044;49.814;7.828;2023-08-30T04:15:26;12.80;99.90
7998;DHT22;4044;49.814;7.828;2023-08-30T04:17:52;12.80;99.90
7998;DHT22;4044;49.814;7.828;2023-08-30T04:20:17;12.70;99.90
7998;DHT22;4044;49.814;7.828;2023-08-30T04:22:43;12.60;99.90
7998;DHT22;4044;49.814;7.828;2023-08-30T04:25:08;12.50;99.90
7998;DHT22;4044;49.814;7.828;2023-08-30T04:27:35;12.40;99.90
7998;DHT22;4044;49.814;7.828;2023-08-30T04:30:01;12.40;99.90
7998;DHT22;4044;49.814;7.828;2023-08-30T04:32:26;12.40;99.90
7998;DHT22;4044;49.814;7.828;2023-08-30T04:34:52;12.40;99.90
7998;DHT22;4044;49.814;7.828;2023-08-30T04:37:17;12.40;99.90
7998;DHT22;4044;49.814;7.828;2023-08-30T04:39:43;12.50;99.90
7998;DHT22;4044;49.814;7.828;2023-08-30T04:42:12;12.50;99.90
7998;DHT22;4044;49.814;7.828;2023-08-30T04:44:37;12.60;99.90
7998;DHT22;4044;49.814;7.828;2023-08-30T04:47:03;12.70;99.90
7998;DHT22;4044;49.814;7.828;2023-08-30T04:49:28;12.80;99.90
7998;DHT22;4044;49.814;7.828;2023-08-30T04:51:54;12.80;99.90
7998;DHT22;4044;49.814;7.828;2023-08-30T04:54:20;12.80;99.90
7998;DHT22;4044;49.814;7.828;2023-08-30T04:56:45;12.90;99.90
7998;DHT22;4044;49.814;7.828;2023-08-30T04:59:11;12.90;99.90
7998;DHT22;4044;49.814;7.828;2023-08-30T05:01:36;13.00;99.90
7998;DHT22;4044;49.814;7.828;2023-08-30T05:04:04;13.10;99.90
7998;DHT22;4044;49.814;7.828;2023-08-30T05:06:31;13.10;99.90
7998;DHT22;4044;49.814;7.828;2023-08-30T05:08:56;13.20;99.90
7998;DHT22;4044;49.814;7.828;2023-08-30T05:11:23;13.20;99.90
7998;DHT22;4044;49.814;7.828;2023-08-30T05:13:49;13.30;99.90
7998;DHT22;4044;49.814;7.828;2023-08-30T05:16:14;13.30;99.90
7998;DHT22;4044;49.814;7.828;2023-08-30T05:18:40;13.30;99.90
7998;DHT22;4044;49.814;7.828;2023-08-30T05:21:05;13.20;99.90
7998;DHT22;4044;49.814;7.828;2023-08-30T05:23:31;13.20;99.90
7998;DHT22;4044;49.814;7.828;2023-08-30T05:25:57;13.10;99.90
7998;DHT22;4044;49.814;7.828;2023-08-30T05:28:22;13.10;99.90
7998;DHT22;4044;49.814;7.828;2023-08-30T05:30:48;13.00;99.90
7998;DHT22;4044;49.814;7.828;2023-08-30T05:33:13;13.00;99.90
7998;DHT22;4044;49.814;7.828;2023-08-30T05:35:39;13.00;99.90
7998;DHT22;4044;49.814;7.828;2023-08-30T05:38:05;13.00;99.90
7998;DHT22;4044;49.814;7.828;2023-08-30T05:40:30;13.00;99.90
7998;DHT22;4044;49.814;7.828;2023-08-30T05:42:56;13.00;99.90
7998;DHT22;4044;49.814;7.828;2023-08-30T05:45:21;13.10;99.90
7998;DHT22;4044;49.814;7.828;2023-08-30T05:47:47;13.10;99.90
7998;DHT22;4044;49.814;7.828;2023-08-30T05:50:13;13.10;99.90
7998;DHT22;4044;49.814;7.828;2023-08-30T05:52:39;13.10;99.90
7998;DHT22;4044;49.814;7.828;2023-08-30T05:55:07;13.10;99.90
7998;DHT22;4044;49.814;7.828;2023-08-30T05:57:33;13.20;99.90
7998;DHT22;4044;49.814;7.828;2023-08-30T06:00:00;13.20;99.90
7998;DHT22;4044;49.814;7.828;2023-08-30T06:02:26;13.20;99.90
7998;DHT22;4044;49.814;7.828;2023-08-30T06:04:51;13.30;99.90
7998;DHT22;4044;49.814;7.828;2023-08-30T06:07:17;13.40;99.90
7998;DHT22;4044;49.814;7.828;2023-08-30T06:09:42;13.40;99.90
7998;DHT22;4044;49.814;7.828;2023-08-30T06:12:08;13.50;99.90
7998;DHT22;4044;49.814;7.828;2023-08-30T06:14:34;13.60;99.90
7998;DHT22;4044;49.814;7.828;2023-08-30T06:16:59;13.60;99.90
7998;DHT22;4044;49.814;7.828;2023-08-30T06:19:25;13.60;99.90
7998;DHT22;4044;49.814;7.828;2023-08-30T06:21:50;13.70;99.90
7998;DHT22;4044;49.814;7.828;2023-08-30T06:24:16;13.80;99.90
7998;DHT22;4044;49.814;7.828;2023-08-30T06:26:41;13.90;99.90
7998;DHT22;4044;49.814;7.828;2023-08-30T06:29:06;13.90;99.90
7998;DHT22;4044;49.814;7.828;2023-08-30T06:31:32;14.00;99.90
7998;DHT22;4044;49.814;7.828;2023-08-30T06:33:57;14.10;99.90
7998;DHT22;4044;49.814;7.828;2023-08-30T06:36:23;14.20;99.90
7998;DHT22;4044;49.814;7.828;2023-08-30T06:38:49;14.20;99.90
7998;DHT22;4044;49.814;7.828;2023-08-30T06:41:15;14.30;99.90
7998;DHT22;4044;49.814;7.828;2023-08-30T06:43:40;14.50;99.90
7998;DHT22;4044;49.814;7.828;2023-08-30T06:46:06;14.60;99.90
7998;DHT22;4044;49.814;7.828;2023-08-30T06:48:31;14.70;99.90
7998;DHT22;4044;49.814;7.828;2023-08-30T06:50:57;14.80;99.90
7998;DHT22;4044;49.814;7.828;2023-08-30T06:53:25;14.90;99.90
7998;DHT22;4044;49.814;7.828;2023-08-30T06:55:57;15.00;99.90
7998;DHT22;4044;49.814;7.828;2023-08-30T06:58:23;15.10;99.90
7998;DHT22;4044;49.814;7.828;2023-08-30T07:00:49;15.20;99.90
7998;DHT22;4044;49.814;7.828;2023-08-30T07:03:14;15.40;99.90
7998;DHT22;4044;49.814;7.828;2023-08-30T07:05:40;15.60;99.90
7998;DHT22;4044;49.814;7.828;2023-08-30T07:08:05;15.70;99.90
7998;DHT22;4044;49.814;7.828;2023-08-30T07:10:33;15.80;99.90
7998;DHT22;4044;49.814;7.828;2023-08-30T07:12:58;15.90;99.90
7998;DHT22;4044;49.814;7.828;2023-08-30T07:15:24;16.10;99.90
7998;DHT22;4044;49.814;7.828;2023-08-30T07:17:49;16.20;99.90
7998;DHT22;4044;49.814;7.828;2023-08-30T07:20:15;16.40;99.90
7998;DHT22;4044;49.814;7.828;2023-08-30T07:22:40;16.50;99.80
7998;DHT22;4044;49.814;7.828;2023-08-30T07:25:06;16.50;99.70
7998;DHT22;4044;49.814;7.828;2023-08-30T07:27:32;16.50;99.90
7998;DHT22;4044;49.814;7.828;2023-08-30T07:29:58;16.50;99.70
7998;DHT22;4044;49.814;7.828;2023-08-30T07:32:23;16.40;99.90
7998;DHT22;4044;49.814;7.828;2023-08-30T07:34:49;16.30;99.90
7998;DHT22;4044;49.814;7.828;2023-08-30T07:37:21;16.10;99.70
7998;DHT22;4044;49.814;7.828;2023-08-30T07:39:47;16.20;99.90
7998;DHT22;4044;49.814;7.828;2023-08-30T07:42:14;16.20;99.90
7998;DHT22;4044;49.814;7.828;2023-08-30T07:44:40;16.20;99.80
7998;DHT22;4044;49.814;7.828;2023-08-30T07:47:05;16.20;99.80
7998;DHT22;4044;49.814;7.828;2023-08-30T07:49:31;16.20;99.70
7998;DHT22;4044;49.814;7.828;2023-08-30T07:51:56;16.30;99.90
7998;DHT22;4044;49.814;7.828;2023-08-30T07:54:22;16.20;99.80
7998;DHT22;4044;49.814;7.828;2023-08-30T07:56:48;16.30;99.80
7998;DHT22;4044;49.814;7.828;2023-08-30T07:59:13;16.50;99.70
7998;DHT22;4044;49.814;7.828;2023-08-30T08:01:39;16.60;99.40
7998;DHT22;4044;49.814;7.828;2023-08-30T08:04:04;16.60;99.10
7998;DHT22;4044;49.814;7.828;2023-08-30T08:06:30;16.60;99.30
7998;DHT22;4044;49.814;7.828;2023-08-30T08:08:56;16.70;99.20
7998;DHT22;4044;49.814;7.828;2023-08-30T08:11:21;16.70;99.00
7998;DHT22;4044;49.814;7.828;2023-08-30T08:13:47;16.70;98.90
7998;DHT22;4044;49.814;7.828;2023-08-30T08:16:12;16.70;98.90
7998;DHT22;4044;49.814;7.828;2023-08-30T08:18:38;16.80;98.70
7998;DHT22;4044;49.814;7.828;2023-08-30T08:21:03;16.80;98.80
7998;DHT22;4044;49.814;7.828;2023-08-30T08:23:29;16.70;99.00
7998;DHT22;4044;49.814;7.828;2023-08-30T08:26:01;16.60;98.70
7998;DHT22;4044;49.814;7.828;2023-08-30T08:28:28;16.60;98.80
7998;DHT22;4044;49.814;7.828;2023-08-30T08:30:53;16.60;99.20
7998;DHT22;4044;49.814;7.828;2023-08-30T08:33:20;16.80;99.40
7998;DHT22;4044;49.814;7.828;2023-08-30T08:35:49;16.70;98.80
7998;DHT22;4044;49.814;7.828;2023-08-30T08:38:14;16.80;98.90
7998;DHT22;4044;49.814;7.828;2023-08-30T08:40:40;16.80;98.90
7998;DHT22;4044;49.814;7.828;2023-08-30T08:43:06;17.00;99.00
7998;DHT22;4044;49.814;7.828;2023-08-30T08:45:35;17.10;98.60
7998;DHT22;4044;49.814;7.828;2023-08-30T08:48:03;17.30;98.80
7998;DHT22;4044;49.814;7.828;2023-08-30T08:50:29;17.30;98.10
7998;DHT22;4044;49.814;7.828;2023-08-30T08:52:56;17.30;97.80
7998;DHT22;4044;49.814;7.828;2023-08-30T08:55:22;17.30;97.90
7998;DHT22;4044;49.814;7.828;2023-08-30T08:57:48;17.40;98.20
7998;DHT22;4044;49.814;7.828;2023-08-30T09:00:14;17.60;98.10
7998;DHT22;4044;49.814;7.828;2023-08-30T09:02:42;17.70;97.80
7998;DHT22;4044;49.814;7.828;2023-08-30T09:05:08;17.80;97.60
7998;DHT22;4044;49.814;7.828;2023-08-30T09:07:34;17.90;97.40
7998;DHT22;4044;49.814;7.828;2023-08-30T09:10:01;18.00;97.10
7998;DHT22;4044;49.814;7.828;2023-08-30T09:12:26;18.10;97.10
7998;DHT22;4044;49.814;7.828;2023-08-30T09:14:55;18.20;96.30
7998;DHT22;4044;49.814;7.828;2023-08-30T09:17:21;18.30;96.30
7998;DHT22;4044;49.814;7.828;2023-08-30T09:19:47;18.40;96.00
7998;DHT22;4044;49.814;7.828;2023-08-30T09:22:12;18.60;95.80
7998;DHT22;4044;49.814;7.828;2023-08-30T09:24:39;18.70;96.10
7998;DHT22;4044;49.814;7.828;2023-08-30T09:27:05;18.90;96.30
7998;DHT22;4044;49.814;7.828;2023-08-30T09:29:31;19.10;95.40
7998;DHT22;4044;49.814;7.828;2023-08-30T09:31:57;19.20;94.70
7998;DHT22;4044;49.814;7.828;2023-08-30T09:34:23;19.40;94.80
7998;DHT22;4044;49.814;7.828;2023-08-30T09:36:52;19.50;94.60
7998;DHT22;4044;49.814;7.828;2023-08-30T09:39:18;19.70;93.60
7998;DHT22;4044;49.814;7.828;2023-08-30T09:41:48;19.90;94.50
7998;DHT22;4044;49.814;7.828;2023-08-30T09:44:15;19.90;92.40
7998;DHT22;4044;49.814;7.828;2023-08-30T09:46:45;20.00;92.40
7998;DHT22;4044;49.814;7.828;2023-08-30T09:49:11;20.40;93.00
7998;DHT22;4044;49.814;7.828;2023-08-30T09:51:41;20.50;92.10
7998;DHT22;4044;49.814;7.828;2023-08-30T09:54:21;20.60;92.50
7998;DHT22;4044;49.814;7.828;2023-08-30T09:56:46;20.60;92.00
7998;DHT22;4044;49.814;7.828;2023-08-30T09:59:14;20.60;92.20
7998;DHT22;4044;49.814;7.828;2023-08-30T10:01:41;20.70;91.00
7998;DHT22;4044;49.814;7.828;2023-08-30T10:04:10;20.70;90.20
7998;DHT22;4044;49.814;7.828;2023-08-30T10:06:37;20.80;90.20
7998;DHT22;4044;49.814;7.828;2023-08-30T10:09:04;20.70;90.80
7998;DHT22;4044;49.814;7.828;2023-08-30T10:11:32;20.40;90.10
7998;DHT22;4044;49.814;7.828;2023-08-30T10:13:59;20.20;90.50
7998;DHT22;4044;49.814;7.828;2023-08-30T10:16:26;20.00;90.20
7998;DHT22;4044;49.814;7.828;2023-08-30T10:19:03;20.00;89.20
7998;DHT22;4044;49.814;7.828;2023-08-30T10:21:34;20.20;90.00
7998;DHT22;4044;49.814;7.828;2023-08-30T10:24:00;20.40;90.80
7998;DHT22;4044;49.814;7.828;2023-08-30T10:26:29;20.50;88.30
7998;DHT22;4044;49.814;7.828;2023-08-30T10:28:56;20.60;89.30
7998;DHT22;4044;49.814;7.828;2023-08-30T10:31:22;20.70;89.40
7998;DHT22;4044;49.814;7.828;2023-08-30T10:33:53;20.80;88.80
7998;DHT22;4044;49.814;7.828;2023-08-30T10:36:25;20.80;87.70
7998;DHT22;4044;49.814;7.828;2023-08-30T10:38:53;20.80;87.00
7998;DHT22;4044;49.814;7.828;2023-08-30T10:41:25;20.90;87.00
7998;DHT22;4044;49.814;7.828;2023-08-30T10:43:57;21.10;88.60
7998;DHT22;4044;49.814;7.828;2023-08-30T10:46:33;21.50;87.90
7998;DHT22;4044;49.814;7.828;2023-08-30T10:49:12;21.60;85.70
7998;DHT22;4044;49.814;7.828;2023-08-30T10:51:40;21.40;84.70
7998;DHT22;4044;49.814;7.828;2023-08-30T10:54:13;21.50;84.40
7998;DHT22;4044;49.814;7.828;2023-08-30T10:56:46;21.60;86.00
7998;DHT22;4044;49.814;7.828;2023-08-30T10:59:19;21.80;87.10
7998;DHT22;4044;49.814;7.828;2023-08-30T11:01:49;22.00;85.00
7998;DHT22;4044;49.814;7.828;2023-08-30T11:04:17;22.20;84.80
7998;DHT22;4044;49.814;7.828;2023-08-30T11:06:44;22.40;83.00
7998;DHT22;4044;49.814;7.828;2023-08-30T11:09:18;22.30;81.50
7998;DHT22;4044;49.814;7.828;2023-08-30T11:11:46;22.30;83.40
7998;DHT22;4044;49.814;7.828;2023-08-30T11:14:12;22.60;83.90
7998;DHT22;4044;49.814;7.828;2023-08-30T11:16:38;23.00;81.80
7998;DHT22;4044;49.814;7.828;2023-08-30T11:19:05;23.00;82.50
7998;DHT22;4044;49.814;7.828;2023-08-30T11:21:53;23.00;81.20
7998;DHT22;4044;49.814;7.828;2023-08-30T11:24:18;22.90;81.00
7998;DHT22;4044;49.814;7.828;2023-08-30T11:26:43;22.80;81.30
7998;DHT22;4044;49.814;7.828;2023-08-30T11:29:09;22.80;77.50
7998;DHT22;4044;49.814;7.828;2023-08-30T11:31:35;22.80;78.60
7998;DHT22;4044;49.814;7.828;2023-08-30T11:34:01;22.80;74.70
7998;DHT22;4044;49.814;7.828;2023-08-30T11:36:32;22.70;76.10
7998;DHT22;4044;49.814;7.828;2023-08-30T11:39:00;22.80;75.20
7998;DHT22;4044;49.814;7.828;2023-08-30T11:41:26;22.80;76.10
7998;DHT22;4044;49.814;7.828;2023-08-30T11:43:52;22.80;75.50
7998;DHT22;4044;49.814;7.828;2023-08-30T11:46:18;23.00;75.60
7998;DHT22;4044;49.814;7.828;2023-08-30T11:48:45;23.00;73.80
7998;DHT22;4044;49.814;7.828;2023-08-30T11:51:11;23.40;74.60
7998;DHT22;4044;49.814;7.828;2023-08-30T11:53:37;23.60;75.70
7998;DHT22;4044;49.814;7.828;2023-08-30T11:56:04;23.80;75.00
7998;DHT22;4044;49.814;7.828;2023-08-30T11:58:34;24.00;74.10
7998;DHT22;4044;49.814;7.828;2023-08-30T12:01:01;24.30;72.70
7998;DHT22;4044;49.814;7.828;2023-08-30T12:03:27;24.10;72.00
7998;DHT22;4044;49.814;7.828;2023-08-30T12:05:57;24.40;73.60
7998;DHT22;4044;49.814;7.828;2023-08-30T12:08:28;25.10;74.00
7998;DHT22;4044;49.814;7.828;2023-08-30T12:10:55;24.90;70.50
7998;DHT22;4044;49.814;7.828;2023-08-30T12:15:50;24.20;69.20
7998;DHT22;4044;49.814;7.828;2023-08-30T12:18:16;23.80;68.50
7998;DHT22;4044;49.814;7.828;2023-08-30T12:20:55;23.80;68.60
7998;DHT22;4044;49.814;7.828;2023-08-30T12:23:28;24.90;65.80
7998;DHT22;4044;49.814;7.828;2023-08-30T12:26:02;24.80;64.70
7998;DHT22;4044;49.814;7.828;2023-08-30T12:28:33;25.30;64.70
7998;DHT22;4044;49.814;7.828;2023-08-30T12:30:59;25.80;67.10
7998;DHT22;4044;49.814;7.828;2023-08-30T12:33:25;25.30;63.00
7998;DHT22;4044;49.814;7.828;2023-08-30T12:35:52;24.90;67.40
7998;DHT22;4044;49.814;7.828;2023-08-30T12:38:17;24.90;68.10
7998;DHT22;4044;49.814;7.828;2023-08-30T12:40:48;25.10;68.20
7998;DHT22;4044;49.814;7.828;2023-08-30T12:43:15;24.90;66.60
7998;DHT22;4044;49.814;7.828;2023-08-30T12:45:41;24.80;68.70
7998;DHT22;4044;49.814;7.828;2023-08-30T12:48:10;24.20;66.90
7998;DHT22;4044;49.814;7.828;2023-08-30T12:50:37;24.00;68.50
7998;DHT22;4044;49.814;7.828;2023-08-30T12:53:03;23.60;68.30
7998;DHT22;4044;49.814;7.828;2023-08-30T12:55:29;23.10;69.10
7998;DHT22;4044;49.814;7.828;2023-08-30T12:57:55;23.20;71.70
7998;DHT22;4044;49.814;7.828;2023-08-30T13:00:21;23.30;71.90
7998;DHT22;4044;49.814;7.828;2023-08-30T13:02:46;23.40;72.50
7998;DHT22;4044;49.814;7.828;2023-08-30T13:05:12;23.80;73.10
7998;DHT22;4044;49.814;7.828;2023-08-30T13:07:37;23.70;71.50
7998;DHT22;4044;49.814;7.828;2023-08-30T13:10:05;23.80;71.40
7998;DHT22;4044;49.814;7.828;2023-08-30T13:12:31;23.90;70.80
7998;DHT22;4044;49.814;7.828;2023-08-30T13:14:56;24.00;72.80
7998;DHT22;4044;49.814;7.828;2023-08-30T13:17:22;24.30;72.50
7998;DHT22;4044;49.814;7.828;2023-08-30T13:19:47;24.30;70.10
7998;DHT22;4044;49.814;7.828;2023-08-30T13:22:13;24.50;69.80
7998;DHT22;4044;49.814;7.828;2023-08-30T13:24:38;24.60;71.20
7998;DHT22;4044;49.814;7.828;2023-08-30T13:27:04;25.20;68.20
7998;DHT22;4044;49.814;7.828;2023-08-30T13:29:30;25.80;66.90
7998;DHT22;4044;49.814;7.828;2023-08-30T13:31:55;26.10;66.20
7998;DHT22;4044;49.814;7.828;2023-08-30T13:34:21;27.00;67.00
7998;DHT22;4044;49.814;7.828;2023-08-30T13:36:46;26.80;65.80
7998;DHT22;4044;49.814;7.828;2023-08-30T13:39:12;27.70;61.70
7998;DHT22;4044;49.814;7.828;2023-08-30T13:41:37;27.60;63.70
7998;DHT22;4044;49.814;7.828;2023-08-30T13:44:03;27.20;64.30
7998;DHT22;4044;49.814;7.828;2023-08-30T13:46:32;27.10;66.20
7998;DHT22;4044;49.814;7.828;2023-08-30T13:48:58;27.30;63.50
7998;DHT22;4044;49.814;7.828;2023-08-30T13:51:25;27.00;66.50
7998;DHT22;4044;49.814;7.828;2023-08-30T13:53:51;27.30;64.40
7998;DHT22;4044;49.814;7.828;2023-08-30T13:56:17;27.00;64.00
7998;DHT22;4044;49.814;7.828;2023-08-30T13:58:44;26.30;64.10
7998;DHT22;4044;49.814;7.828;2023-08-30T14:01:10;25.80;65.30
7998;DHT22;4044;49.814;7.828;2023-08-30T14:03:36;25.00;67.50
7998;DHT22;4044;49.814;7.828;2023-08-30T14:06:01;24.80;66.90
7998;DHT22;4044;49.814;7.828;2023-08-30T14:08:27;25.60;68.50
7998;DHT22;4044;49.814;7.828;2023-08-30T14:10:52;26.60;66.40
7998;DHT22;4044;49.814;7.828;2023-08-30T14:13:19;26.60;64.60
7998;DHT22;4044;49.814;7.828;2023-08-30T14:15:45;26.40;63.20
7998;DHT22;4044;49.814;7.828;2023-08-30T14:18:10;26.10;64.30
7998;DHT22;4044;49.814;7.828;2023-08-30T14:20:36;26.20;64.80
7998;DHT22;4044;49.814;7.828;2023-08-30T14:23:01;27.00;63.90
7998;DHT22;4044;49.814;7.828;2023-08-30T14:25:27;27.70;63.20
7998;DHT22;4044;49.814;7.828;2023-08-30T14:27:52;28.20;61.00
7998;DHT22;4044;49.814;7.828;2023-08-30T14:30:18;27.90;61.80
7998;DHT22;4044;49.814;7.828;2023-08-30T14:32:44;27.50;61.50
7998;DHT22;4044;49.814;7.828;2023-08-30T14:35:09;27.00;60.80
7998;DHT22;4044;49.814;7.828;2023-08-30T14:37:36;27.50;62.70
7998;DHT22;4044;49.814;7.828;2023-08-30T14:40:03;27.00;63.20
7998;DHT22;4044;49.814;7.828;2023-08-30T14:42:29;27.00;64.40
7998;DHT22;4044;49.814;7.828;2023-08-30T14:44:55;26.90;64.20
7998;DHT22;4044;49.814;7.828;2023-08-30T14:47:21;26.60;64.70
7998;DHT22;4044;49.814;7.828;2023-08-30T14:49:46;25.90;64.50
7998;DHT22;4044;49.814;7.828;2023-08-30T14:52:13;25.80;66.60
7998;DHT22;4044;49.814;7.828;2023-08-30T14:54:39;26.40;65.60
7998;DHT22;4044;49.814;7.828;2023-08-30T14:57:04;27.00;64.90
7998;DHT22;4044;49.814;7.828;2023-08-30T14:59:30;27.30;63.80
7998;DHT22;4044;49.814;7.828;2023-08-30T15:01:55;26.30;63.90
7998;DHT22;4044;49.814;7.828;2023-08-30T15:04:21;26.50;66.00
7998;DHT22;4044;49.814;7.828;2023-08-30T15:06:46;25.50;64.30
7998;DHT22;4044;49.814;7.828;2023-08-30T15:09:12;24.80;67.40
7998;DHT22;4044;49.814;7.828;2023-08-30T15:11:41;24.70;67.90
7998;DHT22;4044;49.814;7.828;2023-08-30T15:14:07;24.60;68.20
7998;DHT22;4044;49.814;7.828;2023-08-30T15:16:32;24.30;70.60
7998;DHT22;4044;49.814;7.828;2023-08-30T15:18:58;23.80;70.80
7998;DHT22;4044;49.814;7.828;2023-08-30T15:21:24;23.70;70.90
7998;DHT22;4044;49.814;7.828;2023-08-30T15:23:49;23.90;71.50
7998;DHT22;4044;49.814;7.828;2023-08-30T15:26:15;23.40;71.00
7998;DHT22;4044;49.814;7.828;2023-08-30T15:28:43;22.70;73.00
7998;DHT22;4044;49.814;7.828;2023-08-30T15:31:12;22.30;75.60
7998;DHT22;4044;49.814;7.828;2023-08-30T15:33:37;22.30;74.10
7998;DHT22;4044;49.814;7.828;2023-08-30T15:36:03;22.10;75.50
7998;DHT22;4044;49.814;7.828;2023-08-30T15:38:28;21.70;75.80
7998;DHT22;4044;49.814;7.828;2023-08-30T15:40:54;21.30;82.60
7998;DHT22;4044;49.814;7.828;2023-08-30T15:43:21;19.90;90.10
7998;DHT22;4044;49.814;7.828;2023-08-30T15:45:46;19.00;93.60
7998;DHT22;4044;49.814;7.828;2023-08-30T15:48:12;18.20;93.40
7998;DHT22;4044;49.814;7.828;2023-08-30T15:50:38;18.00;95.30
7998;DHT22;4044;49.814;7.828;2023-08-30T15:53:03;17.80;95.30
7998;DHT22;4044;49.814;7.828;2023-08-30T15:55:29;17.80;95.50
7998;DHT22;4044;49.814;7.828;2023-08-30T15:57:56;17.50;96.30
7998;DHT22;4044;49.814;7.828;2023-08-30T16:00:22;17.10;97.10